Terminal Aerodrome Forecast
Issued by NWS Tulsa, OK

Current Version | Previous Version | Text Only | Print | Product List | Glossary On
Versions: 1 2 3 4 5 6 7 8 9 10 11 12 13 14
000
FTUS44 KTSA 221700
TAFFSM
TAF
KFSM 221722Z 2218/2318 21007KT P6SM SKC
     FM230200 VRB04KT P6SM FEW250
     FM231500 19010KT P6SM SCT250=

USA.gov is the U.S. government's official web portal to all federal, state and local government web resources and services.